createdAt,value
2023-03-20T00:02:22.135Z,100937.89
2023-03-20T00:04:51.181Z,100937.35
2023-03-20T00:07:19.600Z,100931.02
2023-03-20T00:09:48.802Z,100929.59
2023-03-20T00:12:24.256Z,100931.59
2023-03-20T00:14:53.163Z,100926.81
2023-03-20T00:17:21.717Z,100919.58
2023-03-20T00:19:50.592Z,100918.61
2023-03-20T00:22:19.077Z,100915.86
2023-03-20T00:24:47.873Z,100911.38
2023-03-20T00:27:18.003Z,100910.85
2023-03-20T00:29:46.778Z,100909.23
2023-03-20T00:32:15.868Z,100907.73
2023-03-20T00:34:44.567Z,100901.69
2023-03-20T00:37:14.773Z,100894.20
2023-03-20T00:39:43.367Z,100895.64
2023-03-20T00:42:21.341Z,100888.98
2023-03-20T00:44:54.650Z,100886.77
2023-03-20T00:47:26.018Z,100886.58
2023-03-20T00:49:56.177Z,100883.17
2023-03-20T00:52:25.184Z,100882.94
2023-03-20T00:54:53.736Z,100884.05
2023-03-20T00:57:29.555Z,100879.77
2023-03-20T01:00:05.207Z,100879.19
2023-03-20T01:02:34.734Z,100875.81
2023-03-20T01:05:05.761Z,100870.63
2023-03-20T01:07:34.151Z,100868.30
2023-03-20T01:10:05.991Z,100862.95
2023-03-20T01:12:34.384Z,100867.94
2023-03-20T01:15:02.655Z,100860.51
2023-03-20T01:17:31.345Z,100857.33
2023-03-20T01:19:59.741Z,100857.68
2023-03-20T01:22:28.105Z,100855.97
2023-03-20T01:24:56.373Z,100854.77
2023-03-20T01:27:24.752Z,100854.56
2023-03-20T01:29:53.399Z,100856.27
2023-03-20T01:32:21.820Z,100856.58
2023-03-20T01:34:53.169Z,100853.66
2023-03-20T01:37:27.630Z,100855.31
2023-03-20T01:39:58.139Z,100850.05
2023-03-20T01:42:26.595Z,100847.95
2023-03-20T01:44:54.940Z,100846.81
2023-03-20T01:47:25.111Z,100843.91
2023-03-20T01:50:18.974Z,100841.05
2023-03-20T01:52:50.920Z,100839.26
2023-03-20T01:55:21.318Z,100840.21
2023-03-20T01:57:56.503Z,100839.41
2023-03-20T02:00:25.190Z,100839.58
2023-03-20T02:02:55.001Z,100841.17
2023-03-20T02:05:43.931Z,100843.88
2023-03-20T02:08:40.195Z,100843.24
2023-03-20T02:11:08.884Z,100844.77
2023-03-20T02:13:38.182Z,100843.19
2023-03-20T02:16:11.330Z,100846.84
2023-03-20T02:19:00.441Z,100844.08
2023-03-20T02:22:01.278Z,100843.91
2023-03-20T02:24:35.804Z,100841.40
2023-03-20T02:27:16.776Z,100841.48
2023-03-20T02:30:03.690Z,100840.17
2023-03-20T02:32:36.114Z,100842.36
2023-03-20T02:35:39.172Z,100842.63
2023-03-20T02:38:23.721Z,100849.98
2023-03-20T02:41:13.376Z,100841.08
2023-03-20T02:44:07.893Z,100840.64
2023-03-20T02:46:39.045Z,100835.23
2023-03-20T02:49:26.249Z,100832.12
2023-03-20T02:52:08.558Z,100832.33
2023-03-20T02:54:41.339Z,100832.84
2023-03-20T02:57:14.779Z,100836.83
2023-03-20T03:00:05.536Z,100838.05
2023-03-20T03:02:39.631Z,100840.64
2023-03-20T03:05:17.325Z,100845.13
2023-03-20T03:07:51.010Z,100841.27
2023-03-20T03:10:27.427Z,100839.59
2023-03-20T03:12:58.982Z,100835.43
2023-03-20T03:15:40.837Z,100839.13
2023-03-20T03:18:16.610Z,100836.63
2023-03-20T03:20:48.346Z,100830.08
2023-03-20T03:23:43.382Z,100832.77
2023-03-20T03:26:42.484Z,100832.13
2023-03-20T03:29:14.035Z,100833.42
2023-03-20T03:31:44.721Z,100832.63
2023-03-20T03:34:16.418Z,100830.56
2023-03-20T03:37:21.463Z,100835.70
2023-03-20T03:40:32.649Z,100836.73
2023-03-20T03:43:17.321Z,100841.86
2023-03-20T03:45:52.862Z,100840.67
2023-03-20T03:48:31.375Z,100841.34
2023-03-20T03:51:07.455Z,100839.61
2023-03-20T03:53:41.549Z,100842.59
2023-03-20T03:56:14.084Z,100845.29
2023-03-20T03:58:47.210Z,100842.30
2023-03-20T04:01:17.971Z,100842.77
2023-03-20T04:03:51.308Z,100841.45
2023-03-20T04:06:20.553Z,100838.28
2023-03-20T04:08:48.925Z,100834.92
2023-03-20T04:11:20.744Z,100831.58
2023-03-20T04:13:51.564Z,100836.40
2023-03-20T04:16:23.551Z,100836.41
2023-03-20T04:18:53.704Z,100839.07
2023-03-20T04:21:22.801Z,100838.77
2023-03-20T04:23:52.818Z,100840.83
2023-03-20T04:26:23.759Z,100843.29
2023-03-20T04:28:52.246Z,100842.70
2023-03-20T04:31:36.200Z,100846.30
2023-03-20T04:34:19.024Z,100844.89
2023-03-20T04:37:08.696Z,100843.17
2023-03-20T04:40:04.317Z,100847.52
2023-03-20T04:42:32.675Z,100845.23
2023-03-20T04:45:05.772Z,100851.52
2023-03-20T04:47:34.145Z,100861.27
2023-03-20T04:50:02.527Z,100861.82
2023-03-20T04:52:32.029Z,100863.55
2023-03-20T04:55:00.522Z,100869.04
2023-03-20T04:57:29.098Z,100869.70
2023-03-20T04:59:57.192Z,100872.38
2023-03-20T05:02:25.956Z,100875.38
2023-03-20T05:04:54.572Z,100876.43
2023-03-20T05:07:22.921Z,100873.77
2023-03-20T05:10:04.816Z,100872.00
2023-03-20T05:12:38.419Z,100871.48
2023-03-20T05:15:25.636Z,100869.73
2023-03-20T05:18:12.448Z,100867.48
2023-03-20T05:21:01.510Z,100866.83
2023-03-20T05:23:51.809Z,100868.74
2023-03-20T05:26:51.212Z,100867.46
2023-03-20T05:29:51.947Z,100867.93
2023-03-20T05:32:42.206Z,100870.69
2023-03-20T05:35:33.796Z,100874.80
2023-03-20T05:38:16.481Z,100880.55
2023-03-20T05:40:59.421Z,100881.95
2023-03-20T05:43:44.164Z,100886.45
2023-03-20T05:46:31.351Z,100888.81
2023-03-20T05:49:27.419Z,100887.01
2023-03-20T05:52:22.918Z,100890.79
2023-03-20T05:55:11.478Z,100889.61
2023-03-20T05:58:00.152Z,100888.05
2023-03-20T06:00:41.522Z,100886.82
2023-03-20T06:03:38.984Z,100882.16
2023-03-20T06:06:12.478Z,100880.34
2023-03-20T06:08:43.304Z,100878.73
2023-03-20T06:11:12.008Z,100878.15
2023-03-20T06:13:40.481Z,100878.04
2023-03-20T06:16:09.726Z,100874.02
2023-03-20T06:18:39.461Z,100874.50
2023-03-20T06:21:09.628Z,100874.74
2023-03-20T06:23:37.996Z,100877.01
2023-03-20T06:26:07.154Z,100878.23
2023-03-20T06:28:46.427Z,100880.92
2023-03-20T06:31:15.194Z,100881.06
2023-03-20T06:33:44.612Z,100883.19
2023-03-20T06:36:14.128Z,100885.05
2023-03-20T06:38:42.399Z,100890.34
2023-03-20T06:41:27.734Z,100889.37
2023-03-20T06:44:04.047Z,100887.27
2023-03-20T06:46:50.150Z,100890.60
2023-03-20T06:49:19.018Z,100889.02
2023-03-20T06:51:48.424Z,100893.27
2023-03-20T06:54:23.406Z,100896.16
2023-03-20T06:56:53.171Z,100895.85
2023-03-20T06:59:22.820Z,100893.41
2023-03-20T07:01:56.858Z,100896.88
2023-03-20T07:04:25.884Z,100901.02
2023-03-20T07:06:58.563Z,100905.85
2023-03-20T07:09:27.273Z,100904.01
2023-03-20T07:11:55.536Z,100905.15
2023-03-20T07:14:24.321Z,100902.18
2023-03-20T07:16:57.091Z,100902.53
2023-03-20T07:19:25.694Z,100898.73
2023-03-20T07:22:02.100Z,100902.48
2023-03-20T07:24:35.023Z,100901.99
2023-03-20T07:27:03.328Z,100900.21
2023-03-20T07:29:31.903Z,100896.84
2023-03-20T07:32:01.183Z,100895.39
2023-03-20T07:34:37.057Z,100898.77
2023-03-20T07:37:05.947Z,100889.91
2023-03-20T07:39:35.553Z,100884.62
2023-03-20T07:42:23.908Z,100887.14
2023-03-20T07:44:59.170Z,100888.74
2023-03-20T07:47:28.362Z,100888.48
2023-03-20T07:49:56.714Z,100889.02
2023-03-20T07:52:24.993Z,100886.66
2023-03-20T07:54:54.397Z,100891.11
2023-03-20T07:57:22.980Z,100894.29
2023-03-20T07:59:51.459Z,100895.38
2023-03-20T08:02:19.633Z,100890.73
2023-03-20T08:04:48.320Z,100893.67
2023-03-20T08:07:16.912Z,100892.20
2023-03-20T08:09:45.800Z,100891.17
2023-03-20T08:12:14.548Z,100889.29
2023-03-20T08:14:44.400Z,100893.88
2023-03-20T08:17:15.493Z,100893.63
2023-03-20T08:19:46.035Z,100893.77
2023-03-20T08:22:14.148Z,100899.23
2023-03-20T08:24:42.319Z,100895.75
2023-03-20T08:27:10.813Z,100897.30
2023-03-20T08:29:39.287Z,100898.36
2023-03-20T08:32:07.769Z,100902.83
2023-03-20T08:34:36.052Z,100901.11
2023-03-20T08:37:05.352Z,100897.32
2023-03-20T08:39:34.543Z,100901.30
2023-03-20T08:42:03.363Z,100900.98
2023-03-20T08:44:32.225Z,100902.93
2023-03-20T08:47:01.012Z,100902.92
2023-03-20T08:49:29.406Z,100900.80
2023-03-20T08:51:58.184Z,100901.14
2023-03-20T08:54:26.965Z,100899.65
2023-03-20T08:56:55.885Z,100897.70
2023-03-20T08:59:24.232Z,100892.98
2023-03-20T09:01:52.431Z,100892.93
2023-03-20T09:04:21.309Z,100894.91
2023-03-20T09:06:50.394Z,100890.21
2023-03-20T09:09:20.419Z,100887.19
2023-03-20T09:11:48.896Z,100886.80
2023-03-20T09:14:17.682Z,100880.42
2023-03-20T09:16:46.374Z,100884.96
2023-03-20T09:19:15.567Z,100887.48
2023-03-20T09:21:44.166Z,100885.44
2023-03-20T09:24:12.689Z,100884.55
2023-03-20T09:26:41.222Z,100885.88
2023-03-20T09:29:09.603Z,100881.36
2023-03-20T09:31:38.022Z,100881.92
2023-03-20T09:34:06.565Z,100878.03
2023-03-20T09:36:34.938Z,100877.20
2023-03-20T09:39:04.456Z,100876.89
2023-03-20T09:41:52.975Z,100871.18
2023-03-20T09:44:30.657Z,100867.30
2023-03-20T09:47:40.239Z,100862.94
2023-03-20T09:50:41.712Z,100856.24
2023-03-20T09:53:31.272Z,100851.20
2023-03-20T09:56:00.427Z,100845.23
2023-03-20T09:58:33.976Z,100844.35
2023-03-20T10:01:05.805Z,100843.87
2023-03-20T10:03:43.223Z,100844.53
2023-03-20T10:06:17.085Z,100836.77
2023-03-20T10:08:46.536Z,100832.42
2023-03-20T10:11:45.939Z,100835.36
2023-03-20T10:14:23.429Z,100831.10
2023-03-20T10:17:17.646Z,100829.98
2023-03-20T10:19:57.875Z,100825.45
2023-03-20T10:22:33.110Z,100820.60
2023-03-20T10:25:32.280Z,100817.92
2023-03-20T10:28:04.454Z,100806.95
2023-03-20T10:30:48.135Z,100802.46
2023-03-20T10:33:31.857Z,100800.05
2023-03-20T10:36:22.178Z,100799.45
2023-03-20T10:38:57.456Z,100794.08
2023-03-20T10:41:32.385Z,100792.57
2023-03-20T10:44:02.058Z,100792.06
2023-03-20T10:46:43.454Z,100797.95
2023-03-20T10:49:17.686Z,100793.38
2023-03-20T10:51:52.726Z,100791.48
2023-03-20T10:54:42.141Z,100792.13
2023-03-20T10:57:35.199Z,100788.08
2023-03-20T11:00:05.486Z,100784.48
2023-03-20T11:02:34.012Z,100778.21
2023-03-20T11:05:23.583Z,100778.63
2023-03-20T11:08:01.589Z,100774.52
2023-03-20T11:10:32.710Z,100773.54
2023-03-20T11:13:23.230Z,100768.65
2023-03-20T11:15:53.905Z,100762.44
2023-03-20T11:18:25.825Z,100755.40
2023-03-20T11:20:58.209Z,100752.98
2023-03-20T11:23:30.779Z,100750.73
2023-03-20T11:26:04.062Z,100745.92
2023-03-20T11:28:32.249Z,100747.53
2023-03-20T11:31:24.944Z,100745.55
2023-03-20T11:34:10.072Z,100738.34
2023-03-20T11:36:41.389Z,100728.73
2023-03-20T11:39:14.821Z,100728.21
2023-03-20T11:41:45.752Z,100730.02
2023-03-20T11:44:36.459Z,100722.60
2023-03-20T11:47:20.403Z,100722.20
2023-03-20T11:49:55.167Z,100722.34
2023-03-20T11:52:29.713Z,100721.64
2023-03-20T11:55:00.385Z,100720.16
2023-03-20T11:57:31.429Z,100715.71
2023-03-20T12:00:07.622Z,100706.10
2023-03-20T12:02:37.441Z,100701.27
2023-03-20T12:05:36.603Z,100694.05
2023-03-20T12:08:13.893Z,100692.71
2023-03-20T12:10:49.436Z,100689.29
2023-03-20T12:13:42.811Z,100687.71
2023-03-20T12:16:17.122Z,100686.85
2023-03-20T12:19:18.265Z,100685.64
2023-03-20T12:21:52.567Z,100682.06
2023-03-20T12:24:28.135Z,100679.95
2023-03-20T12:27:10.136Z,100679.80
2023-03-20T12:30:00.959Z,100674.35
2023-03-20T12:32:42.914Z,100670.14
2023-03-20T12:35:16.789Z,100665.41
2023-03-20T12:37:45.064Z,100659.98
2023-03-20T12:40:17.495Z,100656.14
2023-03-20T12:43:03.670Z,100656.67
2023-03-20T12:45:47.429Z,100653.52
2023-03-20T12:48:37.423Z,100647.70
2023-03-20T12:51:24.745Z,100641.14
2023-03-20T12:54:11.755Z,100639.65
2023-03-20T12:56:52.224Z,100638.89
2023-03-20T12:59:38.929Z,100638.08
2023-03-20T13:02:57.603Z,100632.67
2023-03-20T13:06:04.581Z,100629.55
2023-03-20T13:08:51.795Z,100624.90
2023-03-20T13:11:41.476Z,100620.13
2023-03-20T13:14:14.659Z,100615.29
2023-03-20T13:16:52.039Z,100610.36
2023-03-20T13:19:54.530Z,100609.70
2023-03-20T13:22:42.364Z,100609.67
2023-03-20T13:25:13.304Z,100601.95
2023-03-20T13:28:03.084Z,100602.13
2023-03-20T13:30:31.164Z,100602.83
2023-03-20T13:33:36.498Z,100603.21
2023-03-20T13:36:16.984Z,100608.73
2023-03-20T13:38:53.742Z,100601.03
2023-03-20T13:41:24.490Z,100600.09
2023-03-20T13:44:03.683Z,100596.77
2023-03-20T13:46:38.274Z,100594.00
2023-03-20T13:49:34.058Z,100593.02
2023-03-20T13:52:15.704Z,100595.23
2023-03-20T13:55:21.581Z,100596.52
2023-03-20T13:58:19.581Z,100594.09
2023-03-20T14:00:54.146Z,100589.49
2023-03-20T14:03:28.669Z,100586.75
2023-03-20T14:05:57.433Z,100591.35
2023-03-20T14:08:30.506Z,100590.24
2023-03-20T14:11:11.276Z,100585.70
2023-03-20T14:13:43.061Z,100583.09
2023-03-20T14:16:15.892Z,100582.22
2023-03-20T14:18:47.606Z,100574.77
2023-03-20T14:21:21.294Z,100573.29
2023-03-20T14:24:02.760Z,100575.15
2023-03-20T14:26:41.986Z,100570.64
2023-03-20T14:29:10.168Z,100569.96
2023-03-20T14:31:42.408Z,100566.96
2023-03-20T14:34:13.710Z,100566.59
2023-03-20T14:37:03.402Z,100563.33
2023-03-20T14:39:34.503Z,100558.39
2023-03-20T14:42:11.589Z,100555.67
2023-03-20T14:44:52.358Z,100552.03
2023-03-20T14:47:24.962Z,100548.71
2023-03-20T14:50:11.338Z,100546.69
2023-03-20T14:52:45.571Z,100540.14
2023-03-20T14:55:19.776Z,100537.46
2023-03-20T14:57:56.690Z,100536.77
2023-03-20T15:00:35.993Z,100537.34
2023-03-20T15:03:04.267Z,100536.96
2023-03-20T15:05:36.287Z,100534.52
2023-03-20T15:08:28.769Z,100535.66
2023-03-20T15:11:04.242Z,100534.71
2023-03-20T15:13:36.029Z,100541.97
2023-03-20T15:16:08.444Z,100544.27
2023-03-20T15:21:41.453Z,100548.13
2023-03-20T15:24:30.944Z,100550.45
2023-03-20T15:27:01.783Z,100551.34
2023-03-20T15:29:33.167Z,100550.54
2023-03-20T15:32:13.950Z,100546.16
2023-03-20T15:34:44.728Z,100542.48
2023-03-20T15:37:18.357Z,100543.04
2023-03-20T15:39:54.046Z,100543.16
2023-03-20T15:42:25.755Z,100545.36
2023-03-20T15:44:56.874Z,100544.67
2023-03-20T15:47:26.368Z,100545.00
2023-03-20T15:49:55.893Z,100541.16
2023-03-20T15:52:53.214Z,100540.75
2023-03-20T15:55:24.937Z,100538.71
2023-03-20T15:57:57.283Z,100536.88
2023-03-20T16:00:35.564Z,100545.09
2023-03-20T16:03:08.028Z,100551.69
2023-03-20T16:05:36.646Z,100550.34
2023-03-20T16:08:21.708Z,100556.80
2023-03-20T16:10:59.574Z,100555.61
2023-03-20T16:13:33.155Z,100555.05
2023-03-20T16:16:03.557Z,100555.83
2023-03-20T16:18:36.797Z,100552.84
2023-03-20T16:21:27.850Z,100553.77
2023-03-20T16:23:59.094Z,100550.02
2023-03-20T16:26:28.101Z,100553.14
2023-03-20T16:29:00.405Z,100558.23
2023-03-20T16:31:36.249Z,100556.79
2023-03-20T16:34:08.716Z,100554.89
2023-03-20T16:36:38.885Z,100560.19
2023-03-20T16:39:18.143Z,100563.56
2023-03-20T16:41:50.517Z,100564.66
2023-03-20T16:44:25.041Z,100568.98
2023-03-20T16:47:21.475Z,100569.70
2023-03-20T16:50:02.571Z,100571.52
2023-03-20T16:52:37.406Z,100575.11
2023-03-20T16:55:12.198Z,100575.71
2023-03-20T16:57:40.691Z,100569.15
2023-03-20T17:00:23.810Z,100563.02
2023-03-20T17:02:59.955Z,100569.03
2023-03-20T17:05:44.238Z,100562.96
2023-03-20T17:08:15.086Z,100566.98
2023-03-20T17:10:46.375Z,100566.17
2023-03-20T17:13:15.408Z,100564.84
2023-03-20T17:15:44.841Z,100560.08
2023-03-20T17:18:14.629Z,100560.23
2023-03-20T17:20:43.004Z,100567.77
2023-03-20T17:23:16.643Z,100571.27
2023-03-20T17:25:45.000Z,100567.73
2023-03-20T17:28:20.851Z,100565.27
2023-03-20T17:30:50.683Z,100561.75
2023-03-20T17:33:21.201Z,100557.95
2023-03-20T17:35:49.799Z,100554.80
2023-03-20T17:38:22.243Z,100558.35
2023-03-20T17:40:51.981Z,100557.05
2023-03-20T17:43:20.335Z,100563.39
2023-03-20T17:45:49.036Z,100561.82
2023-03-20T17:48:20.909Z,100562.52
2023-03-20T17:50:53.253Z,100569.41
2023-03-20T17:53:29.013Z,100570.16
2023-03-20T17:55:57.997Z,100574.65
2023-03-20T17:58:26.280Z,100574.85
2023-03-20T18:00:55.631Z,100574.14
2023-03-20T18:03:23.762Z,100573.70
2023-03-20T18:05:52.048Z,100573.68
2023-03-20T18:08:22.299Z,100574.43
2023-03-20T18:10:52.534Z,100577.48
2023-03-20T18:13:22.905Z,100581.60
2023-03-20T18:15:53.811Z,100583.02
2023-03-20T18:18:24.120Z,100581.23
2023-03-20T18:20:54.933Z,100581.44
2023-03-20T18:23:23.486Z,100581.57
2023-03-20T18:25:52.059Z,100579.55
2023-03-20T18:28:24.644Z,100575.49
2023-03-20T18:30:53.046Z,100575.56
2023-03-20T18:33:26.830Z,100575.95
2023-03-20T18:35:55.059Z,100576.79
2023-03-20T18:38:25.033Z,100577.33
2023-03-20T18:40:53.300Z,100577.10
2023-03-20T18:43:21.684Z,100581.14
2023-03-20T18:45:49.985Z,100584.30
2023-03-20T18:48:18.343Z,100582.70
2023-03-20T18:50:51.104Z,100582.61
2023-03-20T18:53:19.817Z,100583.05
2023-03-20T18:55:47.978Z,100582.74
2023-03-20T18:58:27.622Z,100584.06
2023-03-20T19:00:58.198Z,100585.58
2023-03-20T19:03:28.764Z,100587.52
2023-03-20T19:05:58.598Z,100586.75
2023-03-20T19:08:26.871Z,100586.63
2023-03-20T19:10:55.206Z,100590.05
2023-03-20T19:13:24.960Z,100590.61
2023-03-20T19:15:54.828Z,100588.69
2023-03-20T19:18:26.169Z,100594.02
2023-03-20T19:20:56.647Z,100592.73
2023-03-20T19:23:29.041Z,100589.23
2023-03-20T19:25:57.299Z,100583.74
2023-03-20T19:28:38.815Z,100583.32
2023-03-20T19:31:10.023Z,100587.08
2023-03-20T19:33:39.313Z,100585.87
2023-03-20T19:36:24.382Z,100580.81
2023-03-20T19:38:53.364Z,100584.98
2023-03-20T19:41:22.039Z,100587.98
2023-03-20T19:43:53.501Z,100591.42
2023-03-20T19:46:39.822Z,100593.84
2023-03-20T19:49:18.601Z,100592.98
2023-03-20T19:51:48.892Z,100589.71
2023-03-20T19:54:17.811Z,100588.90
2023-03-20T19:56:46.260Z,100586.13
2023-03-20T19:59:16.700Z,100585.50
2023-03-20T20:01:46.275Z,100581.88
2023-03-20T20:04:15.487Z,100583.27
2023-03-20T20:06:47.229Z,100580.40
2023-03-20T20:09:16.355Z,100583.98
2023-03-20T20:11:44.525Z,100584.48
2023-03-20T20:14:14.963Z,100584.41
2023-03-20T20:16:45.683Z,100583.70
2023-03-20T20:19:14.559Z,100586.43
2023-03-20T20:24:31.498Z,100589.63
2023-03-20T20:27:15.912Z,100590.90
2023-03-20T20:29:49.227Z,100588.39
2023-03-20T20:32:19.246Z,100593.92
2023-03-20T20:40:29.397Z,100598.43
2023-03-20T20:43:01.896Z,100589.11
2023-03-20T20:45:32.110Z,100587.72
2023-03-20T20:48:01.919Z,100589.63
2023-03-20T20:50:32.760Z,100593.52
2023-03-20T20:53:02.618Z,100589.71
2023-03-20T20:55:31.203Z,100588.23
2023-03-20T20:57:59.490Z,100580.41
2023-03-20T21:00:45.323Z,100587.00
2023-03-20T21:03:16.466Z,100579.41
2023-03-20T21:05:44.821Z,100582.47
2023-03-20T21:08:15.337Z,100584.02
2023-03-20T21:10:45.217Z,100587.94
2023-03-20T21:13:14.637Z,100589.11
2023-03-20T21:15:45.756Z,100586.55
2023-03-20T21:18:14.679Z,100586.60
2023-03-20T21:20:43.074Z,100587.39
2023-03-20T21:23:11.867Z,100584.29
2023-03-20T21:25:42.164Z,100579.98
2023-03-20T21:28:12.930Z,100575.55
2023-03-20T21:30:54.659Z,100576.45
2023-03-20T21:33:32.902Z,100573.73
2023-03-20T21:36:01.401Z,100572.70
2023-03-20T21:41:19.044Z,100571.05
2023-03-20T21:43:47.833Z,100570.31
2023-03-20T22:03:29.041Z,100572.56
2023-03-20T22:09:51.764Z,100574.94
2023-03-20T22:21:06.237Z,100575.44
2023-03-20T22:26:56.687Z,100557.52
2023-03-20T22:29:32.686Z,100555.33
2023-03-20T22:32:18.650Z,100549.85
2023-03-20T22:37:58.456Z,100551.15
2023-03-20T22:43:38.402Z,100563.31
2023-03-20T22:46:03.342Z,100556.46
2023-03-20T22:48:35.690Z,100557.66
2023-03-20T22:51:04.894Z,100559.84
2023-03-20T22:53:34.321Z,100556.48
2023-03-20T22:56:02.563Z,100552.97
2023-03-20T22:58:31.046Z,100548.31
2023-03-20T23:00:59.367Z,100548.98
2023-03-20T23:03:40.943Z,100552.35
2023-03-20T23:06:25.488Z,100543.24
2023-03-20T23:09:03.144Z,100544.05
2023-03-20T23:11:33.909Z,100548.83
2023-03-20T23:14:03.794Z,100551.48
2023-03-20T23:16:34.276Z,100549.57
2023-03-20T23:19:02.742Z,100547.07
2023-03-20T23:21:30.999Z,100550.29
2023-03-20T23:23:59.276Z,100547.09
2023-03-20T23:26:27.964Z,100550.06
2023-03-20T23:28:56.249Z,100550.55
2023-03-20T23:31:26.273Z,100549.34
2023-03-20T23:33:57.204Z,100551.02
2023-03-20T23:36:42.448Z,100551.36
2023-03-20T23:39:14.331Z,100548.73
2023-03-20T23:44:30.843Z,100544.45
2023-03-20T23:47:01.386Z,100537.10
2023-03-20T23:49:31.405Z,100530.69
2023-03-20T23:51:59.785Z,100530.06
2023-03-20T23:54:27.858Z,100528.03
2023-03-20T23:56:56.233Z,100527.96
2023-03-20T23:59:24.611Z,100529.86
